Time;durP1;ratioP1;P1;durP2;ratioP2;P2;SDS_P1;SDS_P2;PMS_P1;PMS_P2;Temp;Humidity;BMP_temperature;BMP_pressure;BME280_temperature;BME280_humidity;BME280_pressure;Samples;Min_cycle;Max_cycle;Signal;HPM_P1;HPM_P2
2022/10/03 00:01:55;;;;;;;9.82;2.05;;;11.90;99.90;;;;;;5009184;28;19972;-72
2022/10/03 00:05:00;;;;;;;9.70;1.95;;;11.90;99.90;;;;;;5005438;28;20517;-72
2022/10/03 00:07:57;;;;;;;15.70;3.42;;;11.90;99.90;;;;;;4996317;28;20042;-72
2022/10/03 00:10:56;;;;;;;18.70;2.80;;;11.90;99.90;;;;;;5010298;28;20049;-73
2022/10/03 00:13:39;;;;;;;17.25;2.58;;;11.80;99.90;;;;;;5003852;28;20084;-72
2022/10/03 00:16:10;;;;;;;14.25;2.28;;;11.80;99.90;;;;;;5003294;28;20037;-72
2022/10/03 00:19:01;;;;;;;16.80;2.65;;;11.90;99.90;;;;;;5005291;28;20536;-73
2022/10/03 00:21:36;;;;;;;18.67;2.90;;;11.90;99.90;;;;;;5002226;28;20497;-72
2022/10/03 00:24:24;;;;;;;16.15;2.47;;;11.90;99.90;;;;;;5001786;28;20034;-73
2022/10/03 00:27:06;;;;;;;14.85;2.67;;;11.90;99.90;;;;;;5004657;28;20105;-73
2022/10/03 00:29:37;;;;;;;12.20;1.92;;;12.00;99.90;;;;;;5007585;28;20133;-73
2022/10/03 00:32:19;;;;;;;12.13;2.20;;;12.00;99.90;;;;;;5005026;28;20021;-73
2022/10/03 00:35:19;;;;;;;17.02;2.63;;;12.00;99.90;;;;;;4992084;28;20026;-72
2022/10/03 00:37:53;;;;;;;14.38;2.42;;;12.00;99.90;;;;;;5007880;28;20030;-72
2022/10/03 00:40:34;;;;;;;10.65;2.35;;;12.00;99.90;;;;;;5006058;28;20030;-72
2022/10/03 00:43:59;;;;;;;18.83;2.90;;;12.00;99.90;;;;;;4993880;28;20031;-72
2022/10/03 00:46:39;;;;;;;13.68;2.63;;;12.00;99.90;;;;;;5005332;28;20030;-72
2022/10/03 00:49:20;;;;;;;15.02;2.53;;;12.10;99.90;;;;;;5019725;28;20034;-71
2022/10/03 00:52:06;;;;;;;16.20;2.33;;;12.10;99.90;;;;;;5005999;28;20068;-71
2022/10/03 00:54:46;;;;;;;14.27;2.13;;;12.10;99.90;;;;;;5007518;28;20040;-74
2022/10/03 00:57:36;;;;;;;21.02;2.97;;;12.10;99.90;;;;;;5005170;28;20454;-73
2022/10/03 01:00:13;;;;;;;14.95;2.40;;;12.20;99.90;;;;;;5005820;28;20053;-71
2022/10/03 01:02:45;;;;;;;19.30;2.50;;;12.20;99.90;;;;;;5004945;28;20037;-72
2022/10/03 01:05:34;;;;;;;8.80;2.25;;;12.20;99.90;;;;;;5006960;28;20442;-73
2022/10/03 01:08:27;;;;;;;14.20;2.95;;;12.20;99.90;;;;;;5004881;28;20034;-72
2022/10/03 01:11:14;;;;;;;13.55;2.10;;;12.20;99.90;;;;;;5003111;28;20026;-73
2022/10/03 01:14:06;;;;;;;15.80;2.67;;;12.20;99.90;;;;;;5006067;28;20084;-73
2022/10/03 01:16:38;;;;;;;15.27;2.58;;;12.20;99.90;;;;;;5009415;28;20049;-74
2022/10/03 01:19:30;;;;;;;16.90;2.47;;;12.20;99.90;;;;;;5007032;28;20069;-73
2022/10/03 01:22:25;;;;;;;17.35;3.35;;;12.20;99.90;;;;;;5006584;28;20528;-73
2022/10/03 01:25:06;;;;;;;13.27;2.65;;;12.20;99.90;;;;;;5004377;28;20076;-73
2022/10/03 01:30:41;;;;;;;24.00;3.22;;;12.20;99.90;;;;;;5006724;28;19914;-73
2022/10/03 01:33:16;;;;;;;17.75;2.50;;;12.20;99.90;;;;;;5003188;28;20037;-72
2022/10/03 01:36:01;;;;;;;14.18;2.72;;;12.20;99.90;;;;;;5009041;28;20061;-72
2022/10/03 01:38:40;;;;;;;15.88;2.72;;;12.20;99.90;;;;;;5001277;28;20029;-72
2022/10/03 01:41:17;;;;;;;18.73;2.95;;;12.20;99.90;;;;;;5004731;28;20029;-72
2022/10/03 01:44:15;;;;;;;14.98;2.47;;;12.20;99.90;;;;;;5003238;28;20034;-72
2022/10/03 01:46:40;;;;;;;14.68;3.15;;;12.10;99.90;;;;;;5004671;28;20033;-72
2022/10/03 01:49:33;;;;;;;18.48;3.35;;;12.10;99.90;;;;;;5007276;28;20033;-72
2022/10/03 01:52:09;;;;;;;12.35;2.80;;;12.10;99.90;;;;;;5005114;28;20030;-73
2022/10/03 01:54:45;;;;;;;16.88;2.95;;;12.10;99.90;;;;;;5001390;28;20346;-73
2022/10/03 01:57:34;;;;;;;18.52;3.05;;;12.00;99.90;;;;;;5004743;28;20397;-74
2022/10/03 02:00:13;;;;;;;12.80;2.75;;;12.00;99.90;;;;;;5009067;28;20508;-72
2022/10/03 02:03:02;;;;;;;21.88;2.53;;;12.00;99.90;;;;;;5009223;28;20032;-72
2022/10/03 02:05:47;;;;;;;13.38;2.25;;;12.00;99.90;;;;;;5022709;28;20049;-72
2022/10/03 02:08:43;;;;;;;18.92;2.72;;;12.00;99.90;;;;;;5002520;28;20041;-72
2022/10/03 02:11:21;;;;;;;21.08;3.30;;;12.00;99.90;;;;;;5005569;28;20045;-73
2022/10/03 02:13:56;;;;;;;17.13;3.40;;;12.00;99.90;;;;;;4993617;28;20056;-72
2022/10/03 02:17:00;;;;;;;16.40;2.65;;;12.00;99.90;;;;;;5010014;28;20033;-73
2022/10/03 02:19:33;;;;;;;17.45;2.90;;;11.90;99.90;;;;;;5007551;28;20026;-72
2022/10/03 02:21:59;;;;;;;15.88;2.70;;;11.90;99.90;;;;;;5010313;28;20101;-72
2022/10/03 02:24:50;;;;;;;12.35;2.15;;;11.90;99.90;;;;;;5004008;28;20041;-72
2022/10/03 02:27:40;;;;;;;10.95;2.28;;;11.90;99.90;;;;;;5008779;28;20057;-72
2022/10/03 02:30:36;;;;;;;10.80;2.60;;;11.90;99.90;;;;;;5010056;28;20567;-72
2022/10/03 02:33:10;;;;;;;14.55;2.63;;;11.90;99.90;;;;;;5001269;28;20509;-73
2022/10/03 02:36:14;;;;;;;15.15;2.30;;;11.80;99.90;;;;;;5021752;28;20033;-72
2022/10/03 02:39:12;;;;;;;12.18;2.17;;;11.80;99.90;;;;;;5004056;28;20037;-73
2022/10/03 02:42:16;;;;;;;16.38;2.75;;;11.80;99.90;;;;;;5009444;28;20038;-73
2022/10/03 02:44:56;;;;;;;14.15;2.42;;;11.70;99.90;;;;;;4989218;28;20572;-72
2022/10/03 02:47:37;;;;;;;13.43;1.92;;;11.70;99.90;;;;;;5005370;28;20652;-72
2022/10/03 02:50:21;;;;;;;12.55;2.55;;;11.70;99.90;;;;;;5005247;28;20068;-73
2022/10/03 02:52:49;;;;;;;14.02;2.47;;;11.70;99.90;;;;;;5007894;28;20030;-72
2022/10/03 02:55:52;;;;;;;15.07;2.40;;;11.60;99.90;;;;;;5023905;28;20030;-73
2022/10/03 02:59:10;;;;;;;19.15;2.95;;;11.60;99.90;;;;;;5009373;28;20030;-72
2022/10/03 03:02:04;;;;;;;13.30;2.55;;;11.60;99.90;;;;;;4987444;28;20023;-72
2022/10/03 03:04:55;;;;;;;10.50;2.10;;;11.60;99.90;;;;;;4986639;28;20049;-72
2022/10/03 03:07:21;;;;;;;17.50;2.13;;;11.60;99.90;;;;;;5006585;28;20041;-72
2022/10/03 03:10:19;;;;;;;16.13;2.35;;;11.60;99.90;;;;;;5010488;28;20513;-72
2022/10/03 03:12:59;;;;;;;18.63;2.22;;;11.50;99.90;;;;;;5007879;28;20054;-72
2022/10/03 03:15:54;;;;;;;17.30;2.42;;;11.50;99.90;;;;;;5000982;28;20030;-73
2022/10/03 03:18:35;;;;;;;15.77;2.42;;;11.50;99.90;;;;;;5008122;28;20421;-72
2022/10/03 03:21:19;;;;;;;12.57;2.67;;;11.50;99.90;;;;;;5004357;28;20061;-73
2022/10/03 03:24:05;;;;;;;11.85;1.98;;;11.50;99.90;;;;;;5008829;28;20053;-72
2022/10/03 03:26:43;;;;;;;18.17;2.17;;;11.50;99.90;;;;;;5005038;28;20041;-72
2022/10/03 03:30:01;;;;;;;10.93;1.98;;;11.50;99.90;;;;;;5008904;28;20486;-72
2022/10/03 03:32:37;;;;;;;18.25;3.00;;;11.50;99.90;;;;;;4997514;28;20041;-72
2022/10/03 03:35:12;;;;;;;16.48;2.38;;;11.50;99.90;;;;;;5003918;28;20029;-72
2022/10/03 03:38:15;;;;;;;14.05;2.97;;;11.50;99.90;;;;;;5023276;28;20496;-72
2022/10/03 03:41:18;;;;;;;9.48;2.20;;;11.40;99.90;;;;;;5005392;28;20099;-72
2022/10/03 03:43:58;;;;;;;13.23;2.05;;;11.40;99.90;;;;;;5009018;28;20026;-72
2022/10/03 03:46:34;;;;;;;19.33;2.30;;;11.40;99.90;;;;;;5024360;28;20030;-72
2022/10/03 03:49:27;;;;;;;8.65;1.65;;;11.40;99.90;;;;;;5006877;28;20520;-72
2022/10/03 03:52:15;;;;;;;9.23;1.63;;;11.40;99.90;;;;;;5007273;28;20494;-72
2022/10/03 03:54:49;;;;;;;18.30;2.58;;;11.40;99.90;;;;;;5005405;28;20037;-73
2022/10/03 03:57:38;;;;;;;12.25;2.60;;;11.40;99.90;;;;;;5005633;28;20033;-72
2022/10/03 04:00:34;;;;;;;11.07;2.00;;;11.40;99.90;;;;;;5008790;28;20076;-72
2022/10/03 04:03:11;;;;;;;10.10;1.50;;;11.40;99.90;;;;;;5005789;28;20480;-72
2022/10/03 04:05:39;;;;;;;13.68;2.15;;;11.40;99.90;;;;;;5006955;28;20109;-72
2022/10/03 04:08:14;;;;;;;17.10;2.50;;;11.30;99.90;;;;;;5003439;28;20383;-72
2022/10/03 04:11:24;;;;;;;11.48;2.00;;;11.30;99.90;;;;;;5003456;28;20132;-72
2022/10/03 04:14:17;;;;;;;17.98;1.90;;;11.30;99.90;;;;;;5016190;28;20041;-72
2022/10/03 04:20:33;;;;;;;14.95;1.90;;;11.30;99.90;;;;;;5008589;28;20064;-72
2022/10/03 04:23:15;;;;;;;10.80;2.25;;;11.30;99.90;;;;;;5004528;28;20125;-73
2022/10/03 04:25:59;;;;;;;10.15;1.55;;;11.30;99.90;;;;;;5004441;28;20030;-72
2022/10/03 04:28:54;;;;;;;10.82;2.67;;;11.30;99.90;;;;;;5008183;28;20030;-72
2022/10/03 04:31:28;;;;;;;12.00;2.50;;;11.30;99.90;;;;;;5006061;28;20042;-72
2022/10/03 04:34:09;;;;;;;12.93;1.90;;;11.20;99.90;;;;;;5003837;28;20426;-72
2022/10/03 04:37:23;;;;;;;14.17;2.33;;;11.20;99.90;;;;;;5004948;28;20104;-72
2022/10/03 04:40:02;;;;;;;18.75;2.50;;;11.20;99.90;;;;;;5005677;28;20316;-72
2022/10/03 04:42:57;;;;;;;17.92;2.00;;;11.20;99.90;;;;;;5001902;28;20037;-72
2022/10/03 04:45:44;;;;;;;8.73;1.98;;;11.20;99.90;;;;;;5005336;28;20034;-72
2022/10/03 04:48:10;;;;;;;15.45;2.45;;;11.20;99.90;;;;;;5021488;28;20029;-72
2022/10/03 04:50:59;;;;;;;12.35;2.28;;;11.20;99.90;;;;;;5000783;28;20044;-73
2022/10/03 04:53:46;;;;;;;15.35;2.60;;;11.20;99.90;;;;;;5005345;28;20033;-72
2022/10/03 04:56:41;;;;;;;14.68;2.50;;;11.20;99.90;;;;;;5003307;28;20030;-73
2022/10/03 04:59:28;;;;;;;17.45;2.33;;;11.20;99.90;;;;;;5004693;28;20104;-72
2022/10/03 05:02:21;;;;;;;14.55;2.40;;;11.20;99.90;;;;;;5006669;28;20033;-72
2022/10/03 05:05:16;;;;;;;16.42;2.50;;;11.20;99.90;;;;;;5010158;28;20026;-72
2022/10/03 05:08:00;;;;;;;15.90;2.70;;;11.20;99.90;;;;;;5005933;28;20022;-73
2022/10/03 05:10:38;;;;;;;13.70;2.50;;;11.20;99.90;;;;;;4997188;28;20042;-72
2022/10/03 05:13:32;;;;;;;14.80;2.60;;;11.10;99.90;;;;;;5008466;28;20029;-72
2022/10/03 05:16:15;;;;;;;16.15;2.58;;;11.10;99.90;;;;;;5002392;28;20041;-72
2022/10/03 05:19:17;;;;;;;9.35;2.17;;;11.20;99.90;;;;;;5004827;28;20045;-72
2022/10/03 05:22:03;;;;;;;13.48;2.78;;;11.10;99.90;;;;;;4997270;28;20029;-72
2022/10/03 05:24:45;;;;;;;13.05;2.55;;;11.20;99.90;;;;;;4994212;28;20393;-72
2022/10/03 05:27:24;;;;;;;20.75;2.60;;;11.10;99.90;;;;;;5010123;28;20026;-73
2022/10/03 05:30:18;;;;;;;17.17;2.80;;;11.10;99.90;;;;;;4993162;28;20057;-72
2022/10/03 05:32:53;;;;;;;15.05;2.45;;;11.10;99.90;;;;;;4999134;28;20113;-72
2022/10/03 05:35:44;;;;;;;13.43;2.75;;;11.10;99.90;;;;;;5019696;28;20087;-72
2022/10/03 05:38:45;;;;;;;16.63;2.53;;;11.20;99.90;;;;;;4996503;28;20022;-72
2022/10/03 05:41:28;;;;;;;17.77;2.55;;;11.10;99.90;;;;;;4996986;28;20125;-73
2022/10/03 05:44:00;;;;;;;17.13;2.85;;;11.20;99.90;;;;;;5004679;28;20080;-72
2022/10/03 05:46:50;;;;;;;16.65;2.92;;;11.20;99.90;;;;;;4988694;28;20137;-73
2022/10/03 05:49:37;;;;;;;17.67;2.97;;;11.20;99.90;;;;;;5016326;28;20045;-72
2022/10/03 05:52:38;;;;;;;21.08;3.72;;;11.20;99.90;;;;;;4997664;28;20532;-73
2022/10/03 05:55:23;;;;;;;14.73;2.38;;;11.20;99.90;;;;;;4999674;28;20088;-73
2022/10/03 05:58:08;;;;;;;21.52;3.67;;;11.30;99.90;;;;;;4999701;28;20592;-73
2022/10/03 06:00:37;;;;;;;17.90;2.47;;;11.30;99.90;;;;;;4990380;28;20044;-73
2022/10/03 06:03:21;;;;;;;18.65;3.08;;;11.30;99.90;;;;;;4998651;28;20068;-72
2022/10/03 06:05:50;;;;;;;19.70;2.95;;;11.30;99.90;;;;;;5008370;28;20045;-72
2022/10/03 06:08:35;;;;;;;17.92;3.00;;;11.30;99.90;;;;;;4997626;28;20616;-72
2022/10/03 06:11:19;;;;;;;19.85;3.03;;;11.30;99.90;;;;;;4996559;28;21207;-73
2022/10/03 06:14:27;;;;;;;17.08;2.90;;;11.30;99.90;;;;;;4993727;28;20505;-72
2022/10/03 06:17:38;;;;;;;19.05;3.75;;;11.40;99.90;;;;;;5002896;28;20125;-73
2022/10/03 06:20:24;;;;;;;19.10;2.90;;;11.40;99.90;;;;;;5009322;28;20057;-73
2022/10/03 06:23:37;;;;;;;17.05;2.75;;;11.40;99.90;;;;;;5009767;28;20175;-73
2022/10/03 06:26:31;;;;;;;15.20;2.55;;;11.50;99.90;;;;;;5000509;28;20042;-73
2022/10/03 06:29:44;;;;;;;23.33;3.90;;;11.50;99.90;;;;;;5029742;28;20088;-72
2022/10/03 06:32:28;;;;;;;22.67;4.40;;;11.60;99.90;;;;;;5010530;28;20044;-73
2022/10/03 06:35:03;;;;;;;13.20;2.45;;;11.70;99.90;;;;;;5012496;28;20040;-73
2022/10/03 06:38:07;;;;;;;15.00;2.78;;;11.70;99.90;;;;;;5012050;28;20510;-72
2022/10/03 06:40:40;;;;;;;14.05;2.45;;;11.80;99.90;;;;;;4956071;28;20045;-72
2022/10/03 06:43:11;;;;;;;16.45;2.75;;;11.80;99.90;;;;;;4989591;28;20057;-73
2022/10/03 06:46:08;;;;;;;12.77;2.55;;;11.90;99.90;;;;;;4997680;28;20653;-72
2022/10/03 06:49:02;;;;;;;18.05;3.05;;;12.00;99.90;;;;;;5005953;28;20049;-72
2022/10/03 06:52:02;;;;;;;15.52;2.60;;;12.00;99.90;;;;;;5014427;28;20402;-73
2022/10/03 06:54:56;;;;;;;18.80;3.72;;;12.10;99.90;;;;;;5010019;28;20029;-74
2022/10/03 06:57:48;;;;;;;17.38;3.20;;;12.10;99.90;;;;;;5006136;28;20120;-73
2022/10/03 07:00:16;;;;;;;23.83;3.00;;;12.10;99.90;;;;;;5005269;28;20052;-74
2022/10/03 07:03:09;;;;;;;20.08;3.35;;;12.10;99.90;;;;;;5006874;28;20034;-74
2022/10/03 07:05:47;;;;;;;22.08;3.58;;;12.10;99.90;;;;;;4985879;28;20313;-75
2022/10/03 07:08:28;;;;;;;18.10;2.88;;;12.20;99.90;;;;;;5016930;28;20025;-73
2022/10/03 07:11:15;;;;;;;21.60;2.75;;;12.30;99.90;;;;;;5009363;28;20033;-74
2022/10/03 07:14:13;;;;;;;15.43;4.20;;;12.30;99.90;;;;;;5021187;28;20037;-73
2022/10/03 07:16:58;;;;;;;16.90;4.18;;;12.40;99.90;;;;;;5022588;28;20022;-72
2022/10/03 07:19:55;;;;;;;17.60;3.22;;;12.40;99.90;;;;;;5009235;28;20034;-73
2022/10/03 07:22:43;;;;;;;14.18;2.30;;;12.40;99.90;;;;;;5001478;28;20042;-74
2022/10/03 07:25:33;;;;;;;13.30;2.63;;;12.50;99.90;;;;;;5017108;28;20659;-73
2022/10/03 07:28:30;;;;;;;13.32;2.35;;;12.40;99.90;;;;;;5018329;28;20036;-73
2022/10/03 07:31:21;;;;;;;17.10;2.88;;;12.40;99.90;;;;;;5009498;28;20207;-73
2022/10/03 07:34:05;;;;;;;13.07;2.70;;;12.40;99.90;;;;;;5003915;28;20076;-80
2022/10/03 07:39:34;;;;;;;19.17;3.83;;;12.40;99.90;;;;;;5004123;28;20034;-75
2022/10/03 07:42:06;;;;;;;15.07;2.60;;;12.30;99.90;;;;;;5006683;28;20026;-76
2022/10/03 07:44:39;;;;;;;;;;;12.30;99.90;;;;;;4983870;28;20034;-76
2022/10/03 07:47:37;;;;;;;9.60;2.20;;;12.30;99.90;;;;;;5007110;28;20071;-75
2022/10/03 07:50:24;;;;;;;10.30;2.10;;;12.40;99.90;;;;;;5007014;28;20494;-78
2022/10/03 07:53:20;;;;;;;10.40;2.08;;;12.50;99.90;;;;;;5007591;28;20524;-75
2022/10/03 07:56:01;;;;;;;13.40;2.30;;;12.50;99.90;;;;;;5008496;28;20091;-74
2022/10/03 07:58:38;;;;;;;;;;;12.60;99.90;;;;;;5011498;28;20511;-74
2022/10/03 08:01:13;;;;;;;15.30;2.22;;;12.60;99.90;;;;;;5005532;28;20270;-75
2022/10/03 08:03:44;;;;;;;10.00;2.00;;;12.70;99.90;;;;;;5021364;28;20040;-77
2022/10/03 08:06:34;;;;;;;12.43;2.10;;;12.70;99.90;;;;;;5007917;28;20533;-74
2022/10/03 08:09:21;;;;;;;10.43;1.80;;;12.70;99.90;;;;;;5020680;28;20030;-73
2022/10/03 08:12:13;;;;;;;15.57;2.10;;;12.80;99.90;;;;;;4995397;28;20030;-77
2022/10/03 08:15:05;;;;;;;12.77;2.35;;;12.80;99.90;;;;;;5004303;28;20506;-76
2022/10/03 08:17:58;;;;;;;12.75;2.08;;;12.90;99.90;;;;;;5001216;28;20068;-75
2022/10/03 08:20:51;;;;;;;12.05;2.30;;;13.00;99.90;;;;;;4999790;28;20109;-75
2022/10/03 08:23:44;;;;;;;11.93;2.08;;;13.00;99.90;;;;;;5004496;28;20073;-75
2022/10/03 08:26:50;;;;;;;9.35;2.60;;;13.00;99.90;;;;;;5009820;28;20521;-74
2022/10/03 08:29:44;;;;;;;18.30;2.65;;;13.10;99.90;;;;;;5007233;28;20100;-75
2022/10/03 08:33:15;;;;;;;13.07;2.25;;;13.10;99.90;;;;;;5002781;28;20022;-75
2022/10/03 08:36:17;;;;;;;15.50;2.37;;;13.20;99.90;;;;;;4987274;28;20083;-75
2022/10/03 08:39:02;;;;;;;12.20;2.58;;;13.20;99.90;;;;;;4985828;28;20029;-75
2022/10/03 08:42:10;;;;;;;13.90;2.50;;;13.30;99.90;;;;;;5008088;28;20034;-74
2022/10/03 08:44:41;;;;;;;11.80;2.20;;;13.40;99.90;;;;;;5007284;28;20108;-73
2022/10/03 08:47:32;;;;;;;15.57;3.30;;;13.50;99.90;;;;;;5009295;28;20038;-74
2022/10/03 08:50:16;;;;;;;15.35;2.90;;;13.70;99.90;;;;;;5010853;28;20517;-75
2022/10/03 08:53:06;;;;;;;15.68;3.10;;;13.80;99.90;;;;;;5006773;28;20383;-73
2022/10/03 08:55:46;;;;;;;22.77;3.22;;;13.80;99.90;;;;;;5008899;28;20030;-75
2022/10/03 08:58:33;;;;;;;15.60;2.80;;;13.90;99.90;;;;;;4992752;28;20031;-75
2022/10/03 09:01:21;;;;;;;16.98;2.30;;;14.00;99.90;;;;;;5004722;28;20156;-74
2022/10/03 09:03:55;;;;;;;14.10;3.08;;;14.00;99.90;;;;;;5001961;28;20029;-75
2022/10/03 09:06:47;;;;;;;14.30;2.67;;;14.00;99.90;;;;;;4998122;28;20034;-74
2022/10/03 09:09:31;;;;;;;;;;;14.00;99.90;;;;;;5008687;28;20034;-74
2022/10/03 09:12:12;;;;;;;18.52;2.60;;;13.90;99.90;;;;;;5004499;28;19983;-76
2022/10/03 09:14:54;;;;;;;15.45;2.47;;;13.90;99.90;;;;;;5006525;28;20069;-74
2022/10/03 09:17:48;;;;;;;11.75;2.50;;;13.90;99.90;;;;;;5020138;28;20030;-77
2022/10/03 09:20:30;;;;;;;10.50;2.00;;;14.00;99.90;;;;;;5020417;28;20030;-77
2022/10/03 09:22:56;;;;;;;10.85;2.90;;;14.20;99.90;;;;;;5016301;28;20045;-78
2022/10/03 09:25:46;;;;;;;13.98;2.10;;;14.10;99.90;;;;;;5005023;28;20034;-78
2022/10/03 09:28:23;;;;;;;15.18;2.53;;;14.20;99.90;;;;;;5007889;28;20028;-79
2022/10/03 09:30:52;;;;;;;16.95;3.10;;;14.30;99.90;;;;;;5008522;28;20029;-74
2022/10/03 09:33:49;;;;;;;19.00;2.50;;;14.40;99.90;;;;;;5005430;28;20053;-75
2022/10/03 09:36:40;;;;;;;11.93;2.50;;;14.50;99.90;;;;;;5004823;28;20022;-73
2022/10/03 09:39:47;;;;;;;18.33;2.78;;;14.50;99.90;;;;;;5004761;28;20030;-74
2022/10/03 09:42:25;;;;;;;9.02;1.90;;;14.60;99.90;;;;;;5005919;28;20041;-78
2022/10/03 09:45:02;;;;;;;11.38;2.40;;;14.50;99.90;;;;;;5004305;28;20025;-75
2022/10/03 09:47:56;;;;;;;12.68;2.00;;;14.50;99.90;;;;;;5007231;28;20034;-75
2022/10/03 09:50:54;;;;;;;6.85;2.35;;;14.50;99.90;;;;;;5009150;28;20042;-75
2022/10/03 09:54:04;;;;;;;13.95;3.15;;;14.60;99.90;;;;;;5005582;28;20066;-78
2022/10/03 09:57:13;;;;;;;15.45;2.03;;;14.80;99.90;;;;;;5008482;28;20034;-75
2022/10/03 09:59:57;;;;;;;11.25;2.25;;;15.00;99.90;;;;;;4989626;28;20066;-78
2022/10/03 10:02:25;;;;;;;11.18;2.80;;;14.90;99.90;;;;;;4987055;28;20592;-77
2022/10/03 10:05:28;;;;;;;12.57;1.95;;;15.00;99.90;;;;;;5007026;28;20101;-75
2022/10/03 10:08:23;;;;;;;14.30;2.38;;;15.00;99.90;;;;;;4989047;28;20038;-74
2022/10/03 10:11:05;;;;;;;13.65;2.10;;;15.00;99.90;;;;;;4996150;28;20030;-75
2022/10/03 10:13:39;;;;;;;10.27;1.92;;;15.00;99.90;;;;;;4989484;28;20105;-75
2022/10/03 10:16:32;;;;;;;12.70;3.33;;;15.10;99.90;;;;;;4970958;28;20030;-73
2022/10/03 10:19:11;;;;;;;15.13;2.83;;;15.30;99.90;;;;;;4990762;28;20026;-75
2022/10/03 10:21:57;;;;;;;8.68;2.20;;;15.30;99.90;;;;;;4982241;28;20040;-76
2022/10/03 10:25:06;;;;;;;11.95;2.35;;;15.30;99.90;;;;;;5001813;28;20453;-75
2022/10/03 10:27:37;;;;;;;11.38;1.67;;;15.20;99.90;;;;;;4960661;28;20046;-74
2022/10/03 10:30:17;;;;;;;17.15;2.63;;;15.10;99.90;;;;;;5005289;28;20640;-74
2022/10/03 10:33:15;;;;;;;11.20;2.17;;;15.10;99.90;;;;;;5005085;28;20148;-74
2022/10/03 10:35:50;;;;;;;9.77;1.75;;;15.10;99.90;;;;;;5006992;28;20304;-75
2022/10/03 10:38:25;;;;;;;12.07;2.17;;;15.10;99.90;;;;;;5006305;28;20070;-76
2022/10/03 10:41:21;;;;;;;9.88;1.58;;;15.20;99.90;;;;;;5009598;28;20026;-76
2022/10/03 10:44:24;;;;;;;12.32;2.00;;;15.20;99.90;;;;;;5008183;28;20406;-78
2022/10/03 10:47:28;;;;;;;12.38;1.88;;;15.30;99.90;;;;;;5001363;28;20034;-75
2022/10/03 10:50:09;;;;;;;9.73;2.20;;;15.50;99.90;;;;;;5009628;28;20034;-76
2022/10/03 10:53:19;;;;;;;13.82;2.58;;;15.80;99.90;;;;;;4994066;28;20044;-74
2022/10/03 10:56:26;;;;;;;10.00;1.58;;;16.00;99.90;;;;;;5009405;28;20097;-75
2022/10/03 10:59:29;;;;;;;7.93;1.35;;;16.30;99.90;;;;;;5009685;28;20022;-75
2022/10/03 11:02:17;;;;;;;12.65;2.15;;;16.90;99.90;;;;;;5005120;28;20126;-74
2022/10/03 11:05:19;;;;;;;12.23;2.63;;;16.80;99.90;;;;;;5009507;28;20088;-74
2022/10/03 11:08:23;;;;;;;9.05;1.90;;;16.60;99.90;;;;;;4986950;28;20037;-77
2022/10/03 11:11:44;;;;;;;11.30;2.17;;;16.30;99.90;;;;;;5007730;28;20119;-77
2022/10/03 11:14:32;;;;;;;10.75;1.48;;;16.10;99.90;;;;;;5006967;28;20509;-74
2022/10/03 11:17:19;;;;;;;11.48;2.15;;;15.80;99.90;;;;;;5001590;28;20036;-76
2022/10/03 11:19:51;;;;;;;12.23;1.80;;;15.60;99.90;;;;;;5023011;28;20026;-77
2022/10/03 11:22:38;;;;;;;7.78;1.40;;;15.50;99.90;;;;;;4998092;28;20046;-76
2022/10/03 11:25:36;;;;;;;9.30;1.92;;;15.50;99.90;;;;;;5006046;28;20029;-74
2022/10/03 11:28:57;;;;;;;7.35;1.50;;;15.50;99.90;;;;;;5003858;28;20057;-75
2022/10/03 11:31:50;;;;;;;9.38;1.85;;;15.50;99.90;;;;;;4985569;28;20026;-75
2022/10/03 11:34:51;;;;;;;10.77;1.90;;;15.40;99.90;;;;;;5010009;28;20054;-74
2022/10/03 11:37:42;;;;;;;14.02;1.95;;;15.40;99.90;;;;;;5010850;28;20061;-75
2022/10/03 11:40:42;;;;;;;11.48;1.92;;;15.30;99.90;;;;;;4980935;28;20058;-74
2022/10/03 11:43:54;;;;;;;13.48;2.03;;;15.20;99.90;;;;;;5028711;28;20059;-75
2022/10/03 11:46:25;;;;;;;12.45;1.80;;;15.20;99.90;;;;;;5007424;28;20523;-77
2022/10/03 11:49:05;;;;;;;11.27;2.03;;;15.10;99.90;;;;;;5002882;28;20037;-74
2022/10/03 11:51:46;;;;;;;10.40;2.03;;;15.10;99.90;;;;;;5001236;28;20045;-75
2022/10/03 11:54:27;;;;;;;9.32;1.58;;;15.30;99.90;;;;;;5007560;28;20033;-75
2022/10/03 11:57:05;;;;;;;10.00;2.05;;;15.30;99.90;;;;;;5003168;28;20018;-76
2022/10/03 11:59:56;;;;;;;10.73;2.00;;;15.40;99.90;;;;;;4989068;28;20038;-74
2022/10/03 12:03:00;;;;;;;9.82;1.65;;;15.30;99.90;;;;;;5006756;28;20498;-76
2022/10/03 12:09:25;;;;;;;13.55;2.58;;;15.30;99.90;;;;;;5001192;28;20034;-76
2022/10/03 12:11:57;;;;;;;8.38;1.75;;;15.20;99.90;;;;;;5001188;28;20080;-77
2022/10/03 12:14:31;;;;;;;8.48;1.95;;;15.20;99.90;;;;;;5000682;28;20121;-74
2022/10/03 12:17:14;;;;;;;8.00;1.50;;;15.20;99.90;;;;;;5015272;28;20045;-74
2022/10/03 12:20:02;;;;;;;9.82;2.10;;;15.10;99.90;;;;;;5000119;28;20401;-76
2022/10/03 12:22:50;;;;;;;16.73;2.78;;;15.10;99.90;;;;;;5020298;28;20061;-75
2022/10/03 12:25:30;;;;;;;11.77;2.35;;;15.10;99.90;;;;;;5003483;28;20037;-74
2022/10/03 12:28:02;;;;;;;16.13;3.08;;;15.00;99.90;;;;;;5005188;28;20033;-74
2022/10/03 12:31:05;;;;;;;13.07;2.13;;;15.00;99.90;;;;;;5000100;28;20029;-76
2022/10/03 12:33:51;;;;;;;17.40;2.60;;;15.00;99.90;;;;;;4999120;28;20045;-74
2022/10/03 12:36:54;;;;;;;12.38;1.85;;;15.10;99.90;;;;;;4993474;28;20108;-75
2022/10/03 12:40:01;;;;;;;12.18;2.42;;;15.10;99.90;;;;;;4981392;28;20349;-75
2022/10/03 12:43:07;;;;;;;11.15;1.90;;;15.20;99.90;;;;;;4989953;28;20032;-75
2022/10/03 12:46:11;;;;;;;15.40;2.40;;;15.30;99.90;;;;;;4992227;28;20042;-75
2022/10/03 12:49:12;;;;;;;11.30;2.10;;;15.30;99.90;;;;;;4983149;28;20085;-74
2022/10/03 12:51:48;;;;;;;;;;;15.30;99.90;;;;;;4999655;28;20073;-76
2022/10/03 12:54:47;;;;;;;13.65;2.22;;;15.50;99.90;;;;;;5004906;28;20016;-75
2022/10/03 12:57:50;;;;;;;10.00;2.10;;;15.40;99.90;;;;;;5001592;28;20026;-75
2022/10/03 13:00:28;;;;;;;10.68;2.67;;;15.50;99.90;;;;;;4989627;28;20025;-75
2022/10/03 13:03:02;;;;;;;12.88;2.90;;;15.40;99.90;;;;;;5003410;28;20494;-76
2022/10/03 13:05:39;;;;;;;15.52;2.17;;;15.30;99.90;;;;;;5005148;28;20049;-76
2022/10/03 13:08:25;;;;;;;9.82;2.40;;;15.30;99.90;;;;;;4997863;28;20440;-75
2022/10/03 13:11:09;;;;;;;10.57;2.45;;;15.30;99.90;;;;;;5006984;28;20094;-75
2022/10/03 13:14:08;;;;;;;11.85;2.00;;;15.30;99.90;;;;;;5006486;28;20501;-74
2022/10/03 13:17:06;;;;;;;9.23;2.65;;;15.40;99.90;;;;;;5001347;28;20323;-75
2022/10/03 13:20:00;;;;;;;11.98;2.55;;;15.50;99.90;;;;;;4996567;28;20501;-74
2022/10/03 13:22:57;;;;;;;12.48;1.73;;;15.50;99.90;;;;;;5005074;28;20061;-76
2022/10/03 13:25:58;;;;;;;11.00;1.88;;;15.60;99.90;;;;;;5003479;28;20116;-74
2022/10/03 13:28:48;;;;;;;17.07;2.00;;;15.60;99.90;;;;;;4998176;28;20030;-75
2022/10/03 13:31:29;;;;;;;17.48;2.33;;;15.50;99.90;;;;;;5007317;28;20030;-75
2022/10/03 13:34:00;;;;;;;9.65;2.22;;;15.50;99.90;;;;;;5005136;28;20478;-73
2022/10/03 13:36:36;;;;;;;10.25;1.65;;;15.50;99.90;;;;;;5006563;28;20033;-76
2022/10/03 13:39:28;;;;;;;9.00;2.00;;;15.50;99.90;;;;;;5008860;28;20026;-77
2022/10/03 13:42:15;;;;;;;10.48;2.28;;;15.50;99.90;;;;;;5002735;28;20023;-84
2022/10/03 13:44:54;;;;;;;14.00;2.35;;;15.50;99.90;;;;;;5002556;28;20049;-75
2022/10/03 13:47:47;;;;;;;12.82;2.13;;;15.50;99.90;;;;;;5011704;28;20034;-76
2022/10/03 13:50:15;;;;;;;14.65;2.72;;;15.50;99.90;;;;;;4994656;28;20121;-76
2022/10/03 13:52:45;;;;;;;13.23;2.70;;;15.60;99.90;;;;;;5011394;28;20041;-74
2022/10/03 13:55:23;;;;;;;12.57;1.85;;;15.60;99.90;;;;;;5006561;28;20025;-76
2022/10/03 13:58:13;;;;;;;9.23;1.77;;;15.60;99.90;;;;;;5002074;28;20022;-74
2022/10/03 14:00:53;;;;;;;9.27;2.22;;;15.60;99.90;;;;;;4981672;28;20025;-75
2022/10/03 14:04:10;;;;;;;8.50;1.63;;;15.60;99.90;;;;;;4998380;28;20033;-75
2022/10/03 14:06:50;;;;;;;12.93;1.88;;;15.70;99.90;;;;;;4988322;28;20056;-76
2022/10/03 14:09:54;;;;;;;16.08;3.08;;;15.70;99.90;;;;;;4996527;28;20030;-75
2022/10/03 14:12:50;;;;;;;11.88;2.03;;;15.70;99.90;;;;;;5003319;28;20033;-78
2022/10/03 14:15:44;;;;;;;11.18;2.50;;;15.70;99.90;;;;;;5004854;28;20076;-76
2022/10/03 14:18:25;;;;;;;15.13;2.45;;;15.60;99.90;;;;;;5005801;28;20050;-75
2022/10/03 14:21:28;;;;;;;9.05;2.10;;;15.50;99.90;;;;;;5004267;28;20022;-76
2022/10/03 14:24:31;;;;;;;12.98;2.33;;;15.40;99.90;;;;;;4998140;28;20034;-82
2022/10/03 14:27:08;;;;;;;11.30;1.92;;;15.30;99.90;;;;;;5008327;28;20044;-78
2022/10/03 14:29:46;;;;;;;10.93;2.20;;;15.20;99.90;;;;;;5009246;28;20022;-75
2022/10/03 14:32:19;;;;;;;8.52;2.28;;;15.10;99.90;;;;;;4991874;28;20033;-77
2022/10/03 14:34:57;;;;;;;8.95;1.83;;;15.10;99.90;;;;;;4996175;28;20030;-75
2022/10/03 14:37:52;;;;;;;8.93;2.13;;;15.10;99.90;;;;;;5000074;28;20124;-74